• Join FlightAware (Why Join?)
  • Login
  • US Flag 
06:09PM EDT


 

Airport Tracker/Info


-or-


 

Live Flight TrackerFlight Track Log ✈ AFR1743 ✈ 09-May-2013 ✈ LSGG / GVA - LFPG / CDG

Flight Track Log - Related Links

Times and Time Zones

All times are in EDT time to prevent confusion due to time zone crossing. See the AFR1743 flight status page for this flight to view local times or setup timezone preferences in your user account.

Time Position Orientation Groundspeed Altitude Reporting Facility
EDT Latitude Longitude Course Direction KTS MPH feet Rate Location/Type
07:12AM 46.7868 5.4451 320° Northwest  Level Estimated
07:13AM 46.8259 5.3971 320° Northwest  Level Estimated
07:14AM 46.8649 5.3491 320° Northwest  Level Estimated
07:15AM 46.9039 5.3011 320° Northwest  Level Estimated
07:16AM 46.9429 5.2529 320° Northwest  Level Estimated
07:17AM 46.9819 5.2047 320° Northwest  Level Estimated
07:18AM 47.0208 5.1564 320° Northwest  Level Estimated
07:19AM 47.0597 5.1080 320° Northwest  Level Estimated
07:20AM 47.0987 5.0596 320° Northwest  Level Estimated
07:21AM 47.1376 5.0111 320° Northwest  Level Estimated
07:22AM 47.1764 4.9625 320° Northwest  Level Estimated
07:23AM 47.2153 4.9139 320° Northwest  Level Estimated
07:24AM 47.2541 4.8652 320° Northwest  Level Estimated
07:25AM 47.2929 4.8164 320° Northwest  Level Estimated
07:26AM 47.3317 4.7675 320° Northwest  Level Estimated
07:27AM 47.3704 4.7186 319° Northwest  Level Estimated
07:28AM 47.4092 4.6696 319° Northwest  Level Estimated
07:29AM 47.4479 4.6206 319° Northwest  Level Estimated
07:30AM 47.4866 4.5714 319° Northwest  Level Estimated
07:31AM 47.5253 4.5222 319° Northwest  Level Estimated
07:32AM 47.5639 4.4729 319° Northwest  Level Estimated
07:33AM 47.6111 4.4127 319° Northwest  Level Estimated
07:34AM 47.6582 4.3523 319° Northwest  Level Estimated
07:35AM 47.7053 4.2919 319° Northwest  Level Estimated
07:36AM 47.7523 4.2313 319° Northwest  Level Estimated
07:37AM 47.7994 4.1706 319° Northwest  Level Estimated
07:38AM 47.8464 4.1098 319° Northwest  Level Estimated
07:39AM 47.8933 4.0489 319° Northwest  Level Estimated
07:40AM 47.9402 3.9879 319° Northwest  Level Estimated
07:41AM 47.9871 3.9268 319° Northwest  Level Estimated
07:42AM 48.0340 3.8656 319° Northwest  Level Estimated
07:43AM 48.0808 3.8042 319° Northwest  Level Estimated
07:44AM 48.1276 3.7427 319° Northwest  Level Estimated
07:45AM 48.1744 3.6812 319° Northwest  Level Estimated
07:46AM 48.2211 3.6195 319° Northwest  Level Estimated
07:47AM 48.2678 3.5577 319° Northwest  Level Estimated
07:48AM 48.3144 3.4958 319° Northwest  Level Estimated
07:49AM 48.3611 3.4338 319° Northwest  Level Estimated
07:50AM 48.4077 3.3716 318° Northwest  Level Estimated
07:51AM 48.4542 3.3094 318° Northwest  Level Estimated
07:52AM 48.5008 3.2470 318° Northwest  Level Estimated
07:53AM 48.5473 3.1845 318° Northwest  Level Estimated
07:54AM 48.5937 3.1219 318° Northwest  Level Estimated
07:55AM 48.6401 3.0592 318° Northwest  Level Estimated
07:56AM 48.6865 2.9964 318° Northwest  Level Estimated
07:57AM 48.7329 2.9335 318° Northwest  Level Estimated
07:58AM 48.7792 2.8704 318° Northwest  Level Estimated
07:59AM 48.8255 2.8072 318° Northwest  Level Estimated
08:00AM 48.8718 2.7439 318° Northwest  Level Estimated
08:01AM 48.9180 2.6806 318° Northwest  Level Estimated
08:02AM 48.9642 2.6170 318° Northwest  Level Estimated
08:03AM 49.0103 2.5534 318° Northwest  Level Estimated
08:04AM 49.0128 2.5500 318° Northwest  Level Estimated
08:05AM 49.0128 2.5500 180° South  Level Estimated
08:06AM 49.0128 2.5500 180° South  Level Estimated
08:07AM 49.0128 2.5500 180° South  Level Estimated
08:08AM 49.0128 2.5500 180° South  Level Estimated
08:09AM 49.0128 2.5500 180° South  Level Estimated
08:10AM 49.0128 2.5500 180° South  Level Estimated
08:11AM 49.0128 2.5500 180° South  Level Estimated
08:12AM 49.0128 2.5500 180° South  Level Estimated
08:13AM 49.0128 2.5500 180° South  Level Estimated
08:14AM 49.0128 2.5500 180° South  Level Estimated